< < Back
Terminal Aerodrome Forecast


Current Version              Previous Versions:   1  2  3  4  5  6  7  8  9  

Terminal Aerodrome Forecast

855
FTUS42 KTAE 191900 AAA
TAFABY
TAF AMD
KABY 191937Z 1920/2018 01009KT P6SM BKN009 OVC015
      TEMPO 1920/1923 01010G15KT 2SM -RA BR OVC007
     FM200000 02008KT P6SM SCT005 OVC013
     FM200600 04011KT P6SM SCT003 OVC010
      TEMPO 2008/2012 6SM BR OVC008=

Latest METAR

968
SAUS70 KWBC 192000 RRA
MTRABY
METAR KABY 191953Z 35006KT 2SM -RA BR OVC015 14/13 A3002 RMK AO2 SLP165
T01440133 PNO $


USA.gov is the U.S. government's official web portal to all federal, state and local government web resources and services.